Mohawk, Tennessee
Current Conditions -  °F | °C
As of 7:15 PM on Friday 28 Nov 2014 (Local Time) from KMOR Reporting Station
Clear Clear  
Wind Chill:   Ceiling: Unl
Heat Index:   Visibility: 10mi
Dew Point: -6°   Wind: 0mph
Humidity: 64%   Direction: NA
Pressure: 30.26"   Gusts: NA
Location:  36.2°N, 83.05°W
Report Text: KMOR 290015Z AUTO 00000KT 10SM CLR 00/M06 A3026 RMK
Loading
Personal Weather Stations






























Interactive Weather Map New forecast layout! Learn more

10-Day Weather Forecast

Advertisements
Track Severe Weather on mobile